createdAt,value
2018-11-06T00:00:16.847Z,95030.55
2018-11-06T00:02:47.087Z,95027.12
2018-11-06T00:05:17.816Z,95034.59
2018-11-06T00:07:46.937Z,95038.11
2018-11-06T00:10:16.533Z,95035.72
2018-11-06T00:12:45.710Z,95038.77
2018-11-06T00:15:14.735Z,95036.46
2018-11-06T00:17:43.833Z,95035.97
2018-11-06T00:20:13.938Z,95036.77
2018-11-06T00:22:43.063Z,95034.06
2018-11-06T00:25:12.938Z,95029.00
2018-11-06T00:27:42.232Z,95029.00
2018-11-06T00:30:12.732Z,95028.11
2018-11-06T00:32:42.359Z,95031.84
2018-11-06T00:35:12.681Z,95028.54
2018-11-06T00:37:43.143Z,95024.16
2018-11-06T00:40:12.400Z,95029.16
2018-11-06T00:42:41.479Z,95033.13
2018-11-06T00:45:14.135Z,95034.13
2018-11-06T00:47:43.520Z,95033.86
2018-11-06T00:50:13.484Z,95037.75
2018-11-06T00:52:43.523Z,95034.87
2018-11-06T00:55:12.826Z,95035.19
2018-11-06T00:57:43.239Z,95032.50
2018-11-06T01:00:14.624Z,95028.46
2018-11-06T01:02:43.735Z,95026.17
2018-11-06T01:05:13.488Z,95030.14
2018-11-06T01:07:43.516Z,95025.76
2018-11-06T01:10:12.597Z,95025.12
2018-11-06T01:12:41.800Z,95026.38
2018-11-06T01:15:12.336Z,95021.98
2018-11-06T01:17:42.036Z,95027.34
2018-11-06T01:20:13.329Z,95020.27
2018-11-06T01:22:42.479Z,95020.31
2018-11-06T01:25:12.077Z,95012.44
2018-11-06T01:27:41.253Z,95013.95
2018-11-06T01:30:16.731Z,95013.02
2018-11-06T01:32:46.867Z,95012.17
2018-11-06T01:35:16.551Z,95013.52
2018-11-06T01:37:46.360Z,95005.80
2018-11-06T01:40:17.440Z,95008.28
2018-11-06T01:42:47.120Z,95012.86
2018-11-06T01:45:17.042Z,95002.91
2018-11-06T01:47:46.175Z,94998.50
2018-11-06T01:50:17.373Z,95009.13
2018-11-06T01:52:47.563Z,95005.41
2018-11-06T01:55:16.616Z,95006.58
2018-11-06T01:57:45.783Z,94998.61
2018-11-06T02:00:16.380Z,95006.14
2018-11-06T02:02:45.469Z,95005.80
2018-11-06T02:05:15.784Z,95007.85
2018-11-06T02:07:45.960Z,95000.16
2018-11-06T02:10:15.681Z,95001.30
2018-11-06T02:12:45.580Z,94999.63
2018-11-06T02:15:14.798Z,94994.92
2018-11-06T02:17:44.701Z,94994.27
2018-11-06T02:20:14.608Z,95001.99
2018-11-06T02:22:44.320Z,94993.77
2018-11-06T02:25:13.925Z,94998.11
2018-11-06T02:27:43.120Z,94994.27
2018-11-06T02:30:13.971Z,94991.23
2018-11-06T02:32:43.988Z,94991.41
2018-11-06T02:35:13.140Z,94996.13
2018-11-06T02:37:42.323Z,94995.91
2018-11-06T02:40:12.749Z,94995.88
2018-11-06T02:42:42.415Z,94994.25
2018-11-06T02:45:12.339Z,94996.09
2018-11-06T02:47:42.243Z,94998.80
2018-11-06T02:50:12.257Z,94990.61
2018-11-06T02:52:41.873Z,94995.25
2018-11-06T02:55:11.422Z,94990.84
2018-11-06T02:57:40.888Z,94993.86
2018-11-06T03:00:12.566Z,94991.33
2018-11-06T03:02:41.923Z,94997.00
2018-11-06T03:05:11.525Z,94997.88
2018-11-06T03:07:41.155Z,94995.27
2018-11-06T03:10:11.586Z,95006.16
2018-11-06T03:12:41.862Z,95000.73
2018-11-06T03:15:12.091Z,95006.64
2018-11-06T03:17:41.263Z,95004.17
2018-11-06T03:20:11.026Z,95004.83
2018-11-06T03:22:40.574Z,94997.35
2018-11-06T03:25:09.669Z,95003.86
2018-11-06T03:27:38.761Z,94999.48
2018-11-06T03:30:09.720Z,95003.52
2018-11-06T03:32:38.828Z,94999.59
2018-11-06T03:35:08.804Z,94999.95
2018-11-06T03:37:38.183Z,94997.11
2018-11-06T03:40:07.992Z,94991.34
2018-11-06T03:42:37.458Z,94993.23
2018-11-06T03:45:07.003Z,94996.59
2018-11-06T03:47:36.339Z,95002.84
2018-11-06T03:50:05.756Z,95001.56
2018-11-06T03:52:34.849Z,95006.22
2018-11-06T03:55:03.965Z,94996.14
2018-11-06T03:57:33.060Z,94997.92
2018-11-06T04:00:02.178Z,94997.45
2018-11-06T04:02:31.245Z,94998.78
2018-11-06T04:05:00.413Z,95007.02
2018-11-06T04:07:29.523Z,95003.05
2018-11-06T04:09:58.713Z,95004.34
2018-11-06T04:12:27.811Z,95001.79
2018-11-06T04:14:56.940Z,94999.30
2018-11-06T04:17:26.091Z,95002.47
2018-11-06T04:19:55.299Z,94995.45
2018-11-06T04:22:24.449Z,94990.34
2018-11-06T04:24:53.597Z,94988.97
2018-11-06T04:27:22.701Z,94995.27
2018-11-06T04:29:51.911Z,94986.19
2018-11-06T04:32:20.980Z,94989.77
2018-11-06T04:34:50.177Z,94984.09
2018-11-06T04:37:19.273Z,94989.52
2018-11-06T04:39:48.404Z,94977.61
2018-11-06T04:42:17.552Z,94975.69
2018-11-06T04:44:46.769Z,94969.50
2018-11-06T04:47:15.902Z,94971.66
2018-11-06T04:49:44.980Z,94975.52
2018-11-06T04:52:14.256Z,94970.87
2018-11-06T04:54:43.381Z,94970.17
2018-11-06T04:57:12.488Z,94971.02
2018-11-06T04:59:41.636Z,94969.64
2018-11-06T05:02:10.771Z,94966.30
2018-11-06T05:04:39.865Z,94973.14
2018-11-06T05:07:09.131Z,94976.63
2018-11-06T05:09:38.334Z,94980.19
2018-11-06T05:12:07.416Z,94977.27
2018-11-06T05:14:36.679Z,94982.84
2018-11-06T05:17:06.135Z,94978.26
2018-11-06T05:19:35.321Z,94973.18
2018-11-06T05:22:04.986Z,94985.37
2018-11-06T05:24:34.070Z,94979.69
2018-11-06T05:27:04.013Z,94983.18
2018-11-06T05:29:33.304Z,94985.63
2018-11-06T05:32:02.558Z,94982.06
2018-11-06T05:34:31.747Z,94982.58
2018-11-06T05:37:01.030Z,94987.42
2018-11-06T05:39:30.165Z,94990.91
2018-11-06T05:41:59.332Z,94994.44
2018-11-06T05:44:28.415Z,94992.28
2018-11-06T05:46:57.672Z,94991.53
2018-11-06T05:49:27.595Z,94992.90
2018-11-06T05:51:56.738Z,94991.25
2018-11-06T05:54:25.842Z,94998.78
2018-11-06T05:56:55.030Z,94996.93
2018-11-06T05:59:24.125Z,94998.27
2018-11-06T06:01:53.320Z,95001.81
2018-11-06T06:04:22.381Z,94990.33
2018-11-06T06:06:51.508Z,94994.48
2018-11-06T06:09:20.604Z,94998.03
2018-11-06T06:11:49.708Z,95005.88
2018-11-06T06:14:18.789Z,95004.24
2018-11-06T06:16:47.979Z,95003.16
2018-11-06T06:19:17.043Z,95007.97
2018-11-06T06:21:46.245Z,95005.84
2018-11-06T06:24:15.317Z,95002.25
2018-11-06T06:26:44.500Z,95014.47
2018-11-06T06:29:13.636Z,95017.27
2018-11-06T06:31:42.745Z,95014.47
2018-11-06T06:34:11.873Z,95013.36
2018-11-06T06:36:40.976Z,95017.14
2018-11-06T06:39:11.070Z,95021.33
2018-11-06T06:41:40.343Z,95015.03
2018-11-06T06:44:09.508Z,95012.81
2018-11-06T06:46:38.680Z,95021.52
2018-11-06T06:49:07.795Z,95026.13
2018-11-06T06:51:36.882Z,95019.07
2018-11-06T06:54:06.176Z,95023.39
2018-11-06T06:56:35.188Z,95019.25
2018-11-06T06:59:04.347Z,95019.16
2018-11-06T07:01:33.460Z,95019.61
2018-11-06T07:04:02.585Z,95017.60
2018-11-06T07:06:31.799Z,95017.72
2018-11-06T07:09:01.009Z,95004.47
2018-11-06T07:11:30.435Z,95006.84
2018-11-06T07:13:59.513Z,94998.93
2018-11-06T07:16:28.647Z,94993.17
2018-11-06T07:18:57.848Z,94994.15
2018-11-06T07:21:26.927Z,95000.16
2018-11-06T07:23:56.062Z,95007.63
2018-11-06T07:26:25.119Z,95012.16
2018-11-06T07:28:54.235Z,95015.02
2018-11-06T07:31:23.383Z,95015.03
2018-11-06T07:33:52.429Z,95009.95
2018-11-06T07:36:21.595Z,95009.52
2018-11-06T07:38:50.792Z,95006.03
2018-11-06T07:41:19.866Z,95008.33
2018-11-06T07:43:49.116Z,95006.72
2018-11-06T07:46:18.292Z,95001.02
2018-11-06T07:48:47.522Z,94997.84
2018-11-06T07:51:16.632Z,95002.36
2018-11-06T07:53:45.759Z,95000.25
2018-11-06T07:56:14.915Z,94991.53
2018-11-06T07:58:44.013Z,94987.03
2018-11-06T08:01:13.160Z,94993.00
2018-11-06T08:03:42.254Z,94990.55
2018-11-06T08:06:11.489Z,94982.54
2018-11-06T08:08:40.520Z,94980.20
2018-11-06T08:11:09.648Z,94991.48
2018-11-06T08:13:38.925Z,94978.48
2018-11-06T08:16:08.074Z,94981.47
2018-11-06T08:18:37.341Z,94987.47
2018-11-06T08:21:06.441Z,94989.80
2018-11-06T08:23:35.584Z,94990.77
2018-11-06T08:26:05.036Z,94993.23
2018-11-06T08:28:34.130Z,95001.59
2018-11-06T08:31:03.399Z,94996.62
2018-11-06T08:33:32.360Z,94995.44
2018-11-06T08:36:01.527Z,94987.45
2018-11-06T08:38:30.632Z,94985.47
2018-11-06T08:40:59.717Z,94984.29
2018-11-06T08:43:28.825Z,94982.75
2018-11-06T08:45:57.919Z,94987.02
2018-11-06T08:48:26.993Z,94982.72
2018-11-06T08:50:56.129Z,94986.34
2018-11-06T08:53:25.627Z,94981.11
2018-11-06T08:55:54.835Z,94980.73
2018-11-06T08:58:23.934Z,94980.16
2018-11-06T09:00:53.005Z,94979.74
2018-11-06T09:03:22.102Z,94965.75
2018-11-06T09:05:51.394Z,94971.38
2018-11-06T09:08:20.528Z,94969.50
2018-11-06T09:10:49.893Z,94964.02
2018-11-06T09:13:19.037Z,94970.09
2018-11-06T09:15:48.179Z,94972.86
2018-11-06T09:18:17.276Z,94968.70
2018-11-06T09:20:46.462Z,94968.95
2018-11-06T09:23:15.538Z,94964.09
2018-11-06T09:25:44.600Z,94965.28
2018-11-06T09:28:13.809Z,94963.27
2018-11-06T09:30:42.951Z,94963.20
2018-11-06T09:33:11.960Z,94967.78
2018-11-06T09:35:41.157Z,94960.17
2018-11-06T09:38:10.288Z,94953.59
2018-11-06T09:40:39.446Z,94957.47
2018-11-06T09:43:08.524Z,94966.73
2018-11-06T09:45:37.722Z,94963.17
2018-11-06T09:48:06.824Z,94963.30
2018-11-06T09:50:35.953Z,94956.84
2018-11-06T09:53:05.055Z,94953.30
2018-11-06T09:55:34.139Z,94953.52
2018-11-06T09:58:03.331Z,94955.26
2018-11-06T10:00:32.600Z,94946.53
2018-11-06T10:03:01.714Z,94950.84
2018-11-06T10:05:30.822Z,94954.87
2018-11-06T10:07:59.907Z,94945.86
2018-11-06T10:10:29.006Z,94945.39
2018-11-06T10:12:58.143Z,94940.52
2018-11-06T10:15:27.264Z,94934.34
2018-11-06T10:17:56.297Z,94940.67
2018-11-06T10:20:25.417Z,94943.77
2018-11-06T10:22:54.569Z,94939.92
2018-11-06T10:25:23.633Z,94933.13
2018-11-06T10:27:52.709Z,94932.19
2018-11-06T10:30:21.807Z,94925.39
2018-11-06T10:32:50.872Z,94923.34
2018-11-06T10:35:19.957Z,94928.01
2018-11-06T10:37:49.130Z,94926.86
2018-11-06T10:40:19.872Z,94920.47
2018-11-06T10:42:49.292Z,94923.01
2018-11-06T10:45:18.941Z,94924.11
2018-11-06T10:47:48.440Z,94916.34
2018-11-06T10:50:18.292Z,94914.30
2018-11-06T10:52:48.833Z,94912.27
2018-11-06T10:55:17.964Z,94913.79
2018-11-06T10:57:47.078Z,94916.54
2018-11-06T11:00:21.383Z,94905.20
2018-11-06T11:02:55.832Z,94909.63
2018-11-06T11:05:26.650Z,94914.23
2018-11-06T11:07:55.755Z,94904.96
2018-11-06T11:10:24.896Z,94905.22
2018-11-06T11:12:53.985Z,94905.30
2018-11-06T11:15:23.188Z,94905.52
2018-11-06T11:17:52.302Z,94896.27
2018-11-06T11:20:21.629Z,94898.75
2018-11-06T11:22:50.619Z,94891.70
2018-11-06T11:25:19.775Z,94887.97
2018-11-06T11:27:48.918Z,94884.92
2018-11-06T11:30:18.084Z,94879.46
2018-11-06T11:32:48.244Z,94882.03
2018-11-06T11:35:17.361Z,94877.96
2018-11-06T11:37:46.503Z,94878.84
2018-11-06T11:40:16.352Z,94879.12
2018-11-06T11:42:45.575Z,94877.75
2018-11-06T11:45:15.465Z,94886.00
2018-11-06T11:47:44.559Z,94892.22
2018-11-06T11:50:14.752Z,94874.83
2018-11-06T11:52:44.004Z,94877.50
2018-11-06T11:55:13.192Z,94876.14
2018-11-06T11:57:43.014Z,94873.28
2018-11-06T12:00:14.245Z,94863.20
2018-11-06T12:02:43.567Z,94863.97
2018-11-06T12:05:12.776Z,94863.12
2018-11-06T12:07:41.889Z,94862.27
2018-11-06T12:10:12.019Z,94853.55
2018-11-06T12:12:41.374Z,94857.55
2018-11-06T12:15:13.192Z,94855.34
2018-11-06T12:17:42.992Z,94846.11
2018-11-06T12:20:12.938Z,94845.11
2018-11-06T12:22:42.147Z,94854.30
2018-11-06T12:25:11.992Z,94851.56
2018-11-06T12:27:41.310Z,94855.69
2018-11-06T12:30:12.590Z,94842.95
2018-11-06T12:32:42.072Z,94840.43
2018-11-06T12:35:12.204Z,94841.83
2018-11-06T12:37:41.543Z,94839.98
2018-11-06T12:40:11.876Z,94842.19
2018-11-06T12:42:41.440Z,94828.40
2018-11-06T12:45:12.065Z,94830.89
2018-11-06T12:47:41.364Z,94826.20
2018-11-06T12:50:10.727Z,94821.75
2018-11-06T12:52:40.176Z,94821.75
2018-11-06T12:55:10.889Z,94831.83
2018-11-06T12:57:40.175Z,94825.94
2018-11-06T13:00:12.087Z,94823.63
2018-11-06T13:02:41.211Z,94832.38
2018-11-06T13:05:10.662Z,94833.20
2018-11-06T13:07:41.032Z,94825.91
2018-11-06T13:10:10.900Z,94821.73
2018-11-06T13:12:40.549Z,94820.59
2018-11-06T13:15:09.659Z,94821.08
2018-11-06T13:17:38.841Z,94816.86
2018-11-06T13:20:09.735Z,94812.16
2018-11-06T13:22:39.799Z,94818.79
2018-11-06T13:25:08.893Z,94820.48
2018-11-06T13:27:38.867Z,94821.15
2018-11-06T13:30:10.730Z,94821.02
2018-11-06T13:32:40.411Z,94812.49
2018-11-06T13:35:09.965Z,94819.66
2018-11-06T13:37:39.120Z,94828.00
2018-11-06T13:40:10.390Z,94829.86
2018-11-06T13:42:39.882Z,94823.57
2018-11-06T13:45:11.914Z,94825.58
2018-11-06T13:47:41.056Z,94827.14
2018-11-06T13:50:10.106Z,94828.08
2018-11-06T13:52:39.264Z,94828.84
2018-11-06T13:55:09.970Z,94827.14
2018-11-06T13:57:39.056Z,94822.92
2018-11-06T14:00:12.373Z,94818.33
2018-11-06T14:02:41.432Z,94810.84
2018-11-06T14:05:10.552Z,94809.16
2018-11-06T14:07:39.796Z,94805.94
2018-11-06T14:10:09.256Z,94803.37
2018-11-06T14:12:38.599Z,94800.49
2018-11-06T14:15:07.672Z,94804.90
2018-11-06T14:17:37.033Z,94803.78
2018-11-06T14:20:07.732Z,94806.86
2018-11-06T14:22:36.888Z,94804.85
2018-11-06T14:25:06.894Z,94800.73
2018-11-06T14:27:36.186Z,94803.35
2018-11-06T14:30:08.825Z,94803.59
2018-11-06T14:32:38.015Z,94798.86
2018-11-06T14:35:08.205Z,94800.47
2018-11-06T14:37:37.343Z,94798.19
2018-11-06T14:40:07.569Z,94802.19
2018-11-06T14:42:37.161Z,94807.45
2018-11-06T14:45:07.822Z,94809.20
2018-11-06T14:47:37.012Z,94808.17
2018-11-06T14:50:07.005Z,94804.05
2018-11-06T14:52:36.375Z,94800.20
2018-11-06T14:55:06.531Z,94796.09
2018-11-06T14:57:35.671Z,94797.60
2018-11-06T15:00:05.996Z,94791.66
2018-11-06T15:02:35.075Z,94800.61
2018-11-06T15:05:04.228Z,94799.91
2018-11-06T15:07:33.363Z,94790.84
2018-11-06T15:10:02.562Z,94793.29
2018-11-06T15:12:31.631Z,94787.53
2018-11-06T15:15:00.729Z,94783.92
2018-11-06T15:17:29.921Z,94786.96
2018-11-06T15:19:58.998Z,94785.56
2018-11-06T15:22:28.149Z,94785.33
2018-11-06T15:24:57.411Z,94792.57
2018-11-06T15:27:26.457Z,94789.59
2018-11-06T15:29:55.608Z,94786.77
2018-11-06T15:32:24.808Z,94787.84
2018-11-06T15:34:53.811Z,94791.77
2018-11-06T15:37:22.929Z,94790.05
2018-11-06T15:39:52.080Z,94792.39
2018-11-06T15:42:21.181Z,94792.99
2018-11-06T15:44:50.279Z,94795.92
2018-11-06T15:47:19.392Z,94795.77
2018-11-06T15:49:48.468Z,94800.16
2018-11-06T15:52:17.544Z,94798.11
2018-11-06T15:54:46.678Z,94795.25
2018-11-06T15:57:15.752Z,94794.58
2018-11-06T15:59:44.932Z,94796.07
2018-11-06T16:02:14.056Z,94796.03
2018-11-06T16:04:43.124Z,94791.56
2018-11-06T16:07:12.331Z,94795.83
2018-11-06T16:09:41.444Z,94796.48
2018-11-06T16:12:10.531Z,94803.67
2018-11-06T16:14:39.726Z,94802.41
2018-11-06T16:17:08.833Z,94806.98
2018-11-06T16:19:37.933Z,94810.30
2018-11-06T16:22:07.103Z,94810.86
2018-11-06T16:24:36.213Z,94815.43
2018-11-06T16:27:06.329Z,94816.27
2018-11-06T16:29:35.475Z,94812.31
2018-11-06T16:32:04.652Z,94812.50
2018-11-06T16:34:34.023Z,94817.48
2018-11-06T16:37:03.225Z,94816.55
2018-11-06T16:39:32.491Z,94822.64
2018-11-06T16:42:01.637Z,94824.34
2018-11-06T16:44:30.814Z,94823.95
2018-11-06T16:46:59.890Z,94824.11
2018-11-06T16:49:29.008Z,94821.34
2018-11-06T16:51:58.096Z,94818.63
2018-11-06T16:54:27.161Z,94815.50
2018-11-06T16:56:56.362Z,94819.48
2018-11-06T16:59:25.543Z,94816.14
2018-11-06T17:01:54.599Z,94827.78
2018-11-06T17:04:23.809Z,94826.27
2018-11-06T17:06:52.920Z,94825.17
2018-11-06T17:09:22.282Z,94827.99
2018-11-06T17:11:51.388Z,94827.95
2018-11-06T17:14:20.499Z,94820.20
2018-11-06T17:16:49.674Z,94825.13
2018-11-06T17:19:18.768Z,94830.30
2018-11-06T17:21:47.960Z,94824.98
2018-11-06T17:24:17.080Z,94824.91
2018-11-06T17:26:46.262Z,94829.61
2018-11-06T17:29:15.365Z,94831.59
2018-11-06T17:31:44.448Z,94837.53
2018-11-06T17:34:13.562Z,94835.75
2018-11-06T17:36:42.640Z,94833.36
2018-11-06T17:39:13.164Z,94838.84
2018-11-06T17:41:42.364Z,94834.17
2018-11-06T17:44:11.490Z,94833.55
2018-11-06T17:46:40.639Z,94836.61
2018-11-06T17:49:09.770Z,94843.70
2018-11-06T17:51:38.851Z,94830.25
2018-11-06T17:54:08.041Z,94841.47
2018-11-06T17:56:37.120Z,94839.53
2018-11-06T17:59:06.455Z,94835.85
2018-11-06T18:01:35.713Z,94830.27
2018-11-06T18:04:05.031Z,94839.39
2018-11-06T18:06:34.157Z,94840.36
2018-11-06T18:09:03.473Z,94841.39
2018-11-06T18:11:32.547Z,94848.55
2018-11-06T18:14:01.641Z,94843.09
2018-11-06T18:16:30.841Z,94846.95
2018-11-06T18:19:00.033Z,94849.13
2018-11-06T18:21:29.191Z,94844.36
2018-11-06T18:23:58.414Z,94844.66
2018-11-06T18:26:27.765Z,94855.05
2018-11-06T18:28:56.910Z,94845.00
2018-11-06T18:31:26.152Z,94847.72
2018-11-06T18:33:55.305Z,94850.59
2018-11-06T18:36:24.408Z,94852.73
2018-11-06T18:38:53.509Z,94850.86
2018-11-06T18:41:22.589Z,94849.33
2018-11-06T18:43:51.692Z,94854.09
2018-11-06T18:46:20.803Z,94849.37
2018-11-06T18:48:50.095Z,94848.63
2018-11-06T18:51:19.221Z,94847.25
2018-11-06T18:53:48.320Z,94849.37
2018-11-06T18:56:17.483Z,94852.12
2018-11-06T18:58:46.832Z,94854.77
2018-11-06T19:01:16.068Z,94855.94
2018-11-06T19:03:45.187Z,94856.47
2018-11-06T19:06:14.423Z,94852.58
2018-11-06T19:08:43.697Z,94858.22
2018-11-06T19:11:13.175Z,94856.29
2018-11-06T19:13:42.366Z,94856.94
2018-11-06T19:16:11.473Z,94858.69
2018-11-06T19:18:40.540Z,94865.13
2018-11-06T19:21:09.640Z,94864.22
2018-11-06T19:23:38.748Z,94871.55
2018-11-06T19:26:07.853Z,94862.34
2018-11-06T19:28:36.971Z,94872.72
2018-11-06T19:31:06.056Z,94874.13
2018-11-06T19:33:35.247Z,94879.53
2018-11-06T19:36:04.447Z,94881.06
2018-11-06T19:38:33.525Z,94901.85
2018-11-06T19:41:02.625Z,94932.25
2018-11-06T19:43:31.743Z,94926.95
2018-11-06T19:46:00.920Z,94942.75
2018-11-06T19:48:30.021Z,94939.67
2018-11-06T19:50:59.148Z,94938.05
2018-11-06T19:53:28.419Z,94948.54
2018-11-06T19:55:57.424Z,94954.67
2018-11-06T19:58:26.517Z,94953.87
2018-11-06T20:00:55.662Z,94962.83
2018-11-06T20:03:24.814Z,94961.69
2018-11-06T20:05:53.978Z,94966.69
2018-11-06T20:08:23.073Z,94967.17
2018-11-06T20:10:52.180Z,94964.52
2018-11-06T20:13:21.366Z,94974.02
2018-11-06T20:15:50.568Z,94973.58
2018-11-06T20:18:19.519Z,94980.45
2018-11-06T20:20:48.673Z,94982.38
2018-11-06T20:23:17.862Z,94989.22
2018-11-06T20:25:47.064Z,94996.08
2018-11-06T20:28:16.150Z,94996.13
2018-11-06T20:30:45.319Z,95004.83
2018-11-06T20:33:14.587Z,95011.85
2018-11-06T20:35:43.640Z,95016.69
2018-11-06T20:38:12.779Z,95017.50
2018-11-06T20:40:41.850Z,95025.71
2018-11-06T20:43:11.057Z,95022.62
2018-11-06T20:45:40.053Z,95034.94
2018-11-06T20:48:09.170Z,95031.83
2018-11-06T20:50:38.343Z,95039.31
2018-11-06T20:53:07.497Z,95050.65
2018-11-06T20:55:36.619Z,95046.70
2018-11-06T20:58:05.820Z,95053.84
2018-11-06T21:00:34.942Z,95059.43
2018-11-06T21:03:04.147Z,95063.72
2018-11-06T21:05:33.307Z,95062.45
2018-11-06T21:08:02.418Z,95068.22
2018-11-06T21:10:32.495Z,95072.64
2018-11-06T21:13:01.599Z,95070.89
2018-11-06T21:15:30.671Z,95066.69
2018-11-06T21:17:59.967Z,95073.35
2018-11-06T21:20:28.905Z,95077.64
2018-11-06T21:22:58.017Z,95081.27
2018-11-06T21:25:27.308Z,95074.53
2018-11-06T21:27:56.753Z,95086.29
2018-11-06T21:30:25.845Z,95091.57
2018-11-06T21:32:55.009Z,95094.78
2018-11-06T21:35:24.185Z,95089.46
2018-11-06T21:37:53.311Z,95094.67
2018-11-06T21:40:22.766Z,95098.77
2018-11-06T21:42:52.067Z,95091.00
2018-11-06T21:45:21.321Z,95095.02
2018-11-06T21:47:51.109Z,95102.29
2018-11-06T21:50:20.477Z,95110.85
2018-11-06T21:52:49.548Z,95109.06
2018-11-06T21:55:19.444Z,95113.27
2018-11-06T21:57:48.568Z,95112.41
2018-11-06T22:00:19.089Z,95118.11
2018-11-06T22:02:48.222Z,95120.55
2018-11-06T22:05:18.647Z,95125.17
2018-11-06T22:07:47.919Z,95129.59
2018-11-06T22:10:19.089Z,95136.49
2018-11-06T22:12:48.443Z,95141.60
2018-11-06T22:15:18.498Z,95149.04
2018-11-06T22:17:47.587Z,95148.13
2018-11-06T22:20:18.013Z,95158.16
2018-11-06T22:22:47.784Z,95165.95
2018-11-06T22:25:16.993Z,95167.94
2018-11-06T22:27:46.153Z,95176.20
2018-11-06T22:30:16.255Z,95165.03
2018-11-06T22:32:46.017Z,95182.50
2018-11-06T22:35:16.417Z,95176.63
2018-11-06T22:37:45.531Z,95179.91
2018-11-06T22:40:16.748Z,95191.78
2018-11-06T22:42:45.996Z,95193.38
2018-11-06T22:45:16.191Z,95198.34
2018-11-06T22:47:45.414Z,95196.36
2018-11-06T22:50:15.881Z,95196.65
2018-11-06T22:52:45.591Z,95206.20
2018-11-06T22:55:14.900Z,95210.35
2018-11-06T22:57:44.297Z,95217.52
2018-11-06T23:00:17.346Z,95212.38
2018-11-06T23:02:46.556Z,95211.64
2018-11-06T23:05:15.777Z,95212.45
2018-11-06T23:07:50.242Z,95220.38
2018-11-06T23:10:19.548Z,95222.61
2018-11-06T23:12:48.644Z,95222.05
2018-11-06T23:15:17.764Z,95211.64
2018-11-06T23:17:46.840Z,95213.19
2018-11-06T23:20:15.945Z,95213.52
2018-11-06T23:22:45.029Z,95216.92
2018-11-06T23:25:14.171Z,95221.81
2018-11-06T23:27:43.308Z,95228.69
2018-11-06T23:30:14.111Z,95219.84
2018-11-06T23:32:43.484Z,95228.36
2018-11-06T23:35:12.654Z,95222.48
2018-11-06T23:37:41.836Z,95227.94
2018-11-06T23:40:11.396Z,95228.53
2018-11-06T23:42:40.926Z,95230.66
2018-11-06T23:45:10.415Z,95245.40
2018-11-06T23:47:39.536Z,95237.75
2018-11-06T23:50:09.588Z,95244.69
2018-11-06T23:52:38.982Z,95241.95
2018-11-06T23:55:08.257Z,95250.59
2018-11-06T23:57:37.464Z,95248.66
